createdAt,value
2022-10-19T00:01:08.581Z,12.52
2022-10-19T00:03:36.288Z,12.45
2022-10-19T00:06:13.750Z,12.41
2022-10-19T00:08:40.467Z,12.43
2022-10-19T00:11:07.469Z,12.43
2022-10-19T00:13:34.104Z,12.25
2022-10-19T00:16:00.660Z,12.20
2022-10-19T00:18:27.243Z,12.10
2022-10-19T00:21:01.980Z,12.19
2022-10-19T00:23:28.388Z,12.29
2022-10-19T00:25:56.209Z,12.35
2022-10-19T00:28:22.945Z,12.25
2022-10-19T00:33:22.529Z,12.35
2022-10-19T00:35:50.836Z,12.39
2022-10-19T00:38:19.137Z,12.32
2022-10-19T00:40:46.531Z,12.43
2022-10-19T00:43:15.866Z,12.48
2022-10-19T00:45:42.802Z,12.42
2022-10-19T00:48:13.224Z,12.39
2022-10-19T00:50:40.779Z,12.26
2022-10-19T00:53:07.325Z,12.33
2022-10-19T00:55:34.713Z,12.25
2022-10-19T00:58:03.072Z,12.33
2022-10-19T01:00:29.996Z,12.35
2022-10-19T01:02:59.044Z,12.43
2022-10-19T01:05:26.472Z,12.57
2022-10-19T01:07:53.931Z,12.60
2022-10-19T01:10:25.211Z,12.65
2022-10-19T01:13:14.887Z,12.45
2022-10-19T01:16:01.632Z,12.42
2022-10-19T01:18:45.296Z,12.46
2022-10-19T01:21:21.723Z,12.41
2022-10-19T01:24:07.057Z,12.46
2022-10-19T01:26:52.404Z,12.52
2022-10-19T01:29:52.846Z,12.61
2022-10-19T01:32:38.214Z,12.68
2022-10-19T01:35:17.031Z,12.76
2022-10-19T01:37:59.252Z,12.76
2022-10-19T01:40:42.705Z,12.61
2022-10-19T01:43:23.171Z,12.76
2022-10-19T01:45:55.519Z,12.77
2022-10-19T01:48:35.524Z,12.67
2022-10-19T01:51:06.293Z,12.62
2022-10-19T01:53:40.393Z,12.51
2022-10-19T01:56:08.692Z,12.43
2022-10-19T01:58:38.769Z,12.41
2022-10-19T02:01:09.174Z,12.34
2022-10-19T02:03:37.534Z,12.33
2022-10-19T02:06:06.473Z,12.26
2022-10-19T02:08:53.138Z,12.25
2022-10-19T02:11:21.945Z,12.26
2022-10-19T02:14:04.509Z,12.22
2022-10-19T02:16:38.754Z,12.24
2022-10-19T02:19:08.777Z,12.25
2022-10-19T02:21:35.558Z,12.23
2022-10-19T02:24:02.043Z,12.30
2022-10-19T02:26:28.627Z,12.28
2022-10-19T02:28:56.664Z,12.21
2022-10-19T02:31:24.421Z,12.32
2022-10-19T02:33:51.524Z,12.41
2022-10-19T02:36:18.740Z,12.37
2022-10-19T02:38:45.373Z,12.44
2022-10-19T02:41:22.048Z,12.45
2022-10-19T02:43:52.983Z,12.51
2022-10-19T02:46:49.791Z,12.51
2022-10-19T02:49:16.869Z,12.36
2022-10-19T02:52:01.605Z,12.37
2022-10-19T02:54:29.085Z,12.23
2022-10-19T02:56:56.583Z,12.15
2022-10-19T02:59:23.933Z,12.13
2022-10-19T03:01:50.863Z,12.11
2022-10-19T03:04:17.689Z,12.11
2022-10-19T03:06:44.424Z,12.14
2022-10-19T03:09:10.968Z,12.13
2022-10-19T03:11:37.577Z,12.13
2022-10-19T03:14:04.123Z,12.25
2022-10-19T03:16:30.686Z,12.29
2022-10-19T03:18:57.216Z,12.27
2022-10-19T03:21:23.917Z,12.21
2022-10-19T03:23:50.462Z,12.11
2022-10-19T03:26:18.007Z,12.22
2022-10-19T03:28:44.669Z,12.21
2022-10-19T03:31:11.859Z,12.27
2022-10-19T03:33:38.505Z,12.28
2022-10-19T03:36:23.811Z,12.35
2022-10-19T03:38:51.930Z,12.37
2022-10-19T03:41:19.981Z,12.35
2022-10-19T03:43:46.687Z,12.31
2022-10-19T03:46:13.453Z,12.31
2022-10-19T03:48:40.087Z,12.29
2022-10-19T03:51:09.277Z,12.28
2022-10-19T03:53:36.634Z,12.22
2022-10-19T03:56:15.284Z,12.27
2022-10-19T03:58:43.025Z,12.30
2022-10-19T04:01:12.304Z,12.25
2022-10-19T04:03:39.101Z,12.19
2022-10-19T04:06:26.756Z,12.21
2022-10-19T04:08:53.785Z,12.20
2022-10-19T04:11:26.592Z,12.22
2022-10-19T04:13:54.778Z,12.14
2022-10-19T04:16:23.125Z,12.17
2022-10-19T04:18:49.916Z,12.18
2022-10-19T04:21:28.393Z,12.11
2022-10-19T04:24:01.569Z,12.10
2022-10-19T04:26:28.249Z,12.13
2022-10-19T04:28:57.997Z,12.13
2022-10-19T04:31:25.127Z,12.14
2022-10-19T04:33:51.714Z,12.03
2022-10-19T04:36:18.373Z,12.05
2022-10-19T04:38:44.996Z,12.02
2022-10-19T04:41:13.786Z,11.96
2022-10-19T04:43:40.830Z,12.05
2022-10-19T04:46:14.325Z,12.05
2022-10-19T04:48:41.678Z,12.04
2022-10-19T04:51:09.249Z,12.00
2022-10-19T04:53:38.158Z,12.02
2022-10-19T04:56:06.958Z,11.96
2022-10-19T04:58:34.312Z,11.89
2022-10-19T05:01:07.972Z,11.78
2022-10-19T05:03:34.540Z,11.74
2022-10-19T05:06:01.084Z,11.82
2022-10-19T05:08:27.613Z,11.82
2022-10-19T05:10:54.211Z,11.85
2022-10-19T05:13:20.902Z,11.84
2022-10-19T05:15:58.149Z,11.90
2022-10-19T05:18:24.915Z,11.92
2022-10-19T05:20:51.644Z,11.95
2022-10-19T05:23:18.196Z,11.99
2022-10-19T05:25:44.893Z,11.93
2022-10-19T05:28:11.622Z,11.94
2022-10-19T05:30:39.282Z,11.85
2022-10-19T05:33:05.932Z,11.85
2022-10-19T05:35:32.533Z,11.94
2022-10-19T05:37:59.073Z,11.93
2022-10-19T05:40:25.591Z,12.02
2022-10-19T05:42:52.124Z,12.10
2022-10-19T05:45:18.747Z,12.05
2022-10-19T05:47:45.267Z,12.14
2022-10-19T05:50:11.794Z,12.16
2022-10-19T05:52:38.312Z,12.30
2022-10-19T05:55:05.386Z,12.47
2022-10-19T05:57:32.990Z,12.56
2022-10-19T05:59:59.871Z,12.54
2022-10-19T06:02:26.385Z,12.56
2022-10-19T06:04:52.998Z,12.58
2022-10-19T06:07:19.543Z,12.65
2022-10-19T06:09:46.211Z,12.74
2022-10-19T06:12:13.496Z,12.73
2022-10-19T06:14:42.526Z,12.73
2022-10-19T06:17:09.322Z,12.73
2022-10-19T06:19:35.976Z,12.74
2022-10-19T06:22:02.644Z,12.77
2022-10-19T06:24:29.178Z,12.72
2022-10-19T06:26:55.886Z,12.70
2022-10-19T06:29:22.400Z,12.72
2022-10-19T06:31:48.949Z,12.71
2022-10-19T06:34:15.687Z,12.70
2022-10-19T06:36:42.269Z,12.67
2022-10-19T06:39:09.494Z,12.70
2022-10-19T06:41:36.153Z,12.54
2022-10-19T06:44:02.779Z,12.59
2022-10-19T06:46:29.400Z,12.55
2022-10-19T06:49:01.579Z,12.55
2022-10-19T06:51:30.498Z,12.60
2022-10-19T06:53:57.640Z,12.67
2022-10-19T06:56:25.076Z,12.80
2022-10-19T06:58:52.034Z,13.12
2022-10-19T07:01:18.758Z,13.15
2022-10-19T07:03:45.700Z,13.27
2022-10-19T07:06:13.646Z,13.72
2022-10-19T07:08:41.753Z,13.93
2022-10-19T07:11:16.515Z,13.90
2022-10-19T07:13:43.410Z,13.78
2022-10-19T07:16:16.007Z,13.79
2022-10-19T07:18:47.006Z,13.67
2022-10-19T07:21:16.197Z,13.64
2022-10-19T07:23:44.998Z,13.68
2022-10-19T07:26:23.836Z,13.66
2022-10-19T07:28:51.418Z,13.65
2022-10-19T07:31:21.344Z,13.57
2022-10-19T07:33:51.942Z,13.56
2022-10-19T07:36:18.478Z,13.58
2022-10-19T07:38:45.035Z,13.56
2022-10-19T07:41:16.791Z,13.52
2022-10-19T07:43:45.237Z,13.36
2022-10-19T07:46:20.376Z,13.29
2022-10-19T07:48:47.502Z,13.32
2022-10-19T07:51:15.940Z,13.63
2022-10-19T07:53:43.521Z,13.79
2022-10-19T07:56:19.287Z,13.96
2022-10-19T07:58:46.363Z,13.97
2022-10-19T08:01:15.766Z,13.96
2022-10-19T08:04:42.778Z,14.01
2022-10-19T08:06:29.572Z,14.45
2022-10-19T08:08:56.650Z,14.55
2022-10-19T08:11:26.406Z,14.67
2022-10-19T08:13:53.941Z,14.58
2022-10-19T08:16:25.089Z,14.75
2022-10-19T08:18:53.111Z,14.76
2022-10-19T08:21:19.732Z,14.96
2022-10-19T08:23:46.237Z,14.78
2022-10-19T08:26:12.850Z,14.60
2022-10-19T08:28:39.660Z,14.87
2022-10-19T08:31:22.256Z,14.64
2022-10-19T08:33:50.850Z,14.65
2022-10-19T08:36:19.712Z,14.84
2022-10-19T08:38:48.436Z,14.90
2022-10-19T08:41:39.895Z,15.02
2022-10-19T08:44:15.250Z,15.00
2022-10-19T08:47:06.113Z,14.75
2022-10-19T08:49:35.285Z,14.52
2022-10-19T08:52:11.474Z,14.62
2022-10-19T08:57:33.737Z,14.84
2022-10-19T09:00:15.406Z,14.85
2022-10-19T09:03:09.762Z,14.85
2022-10-19T09:05:52.970Z,14.99
2022-10-19T09:08:20.722Z,15.06
2022-10-19T09:10:50.565Z,15.18
2022-10-19T09:14:00.436Z,15.12
2022-10-19T09:16:29.078Z,15.19
2022-10-19T09:18:55.717Z,15.33
2022-10-19T09:21:34.443Z,15.34
2022-10-19T09:24:25.015Z,15.43
2022-10-19T09:26:53.885Z,15.48
2022-10-19T09:29:28.775Z,15.35
2022-10-19T09:34:36.784Z,15.49
2022-10-19T09:37:06.012Z,15.53
2022-10-19T09:39:32.851Z,15.59
2022-10-19T09:42:01.211Z,15.54
2022-10-19T09:44:27.862Z,15.61
2022-10-19T09:47:13.789Z,15.70
2022-10-19T09:49:46.300Z,15.73
2022-10-19T09:52:35.957Z,15.70
2022-10-19T09:55:14.717Z,15.73
2022-10-19T09:57:58.543Z,15.71
2022-10-19T10:00:31.664Z,15.84
2022-10-19T10:02:58.256Z,15.86
2022-10-19T10:05:33.885Z,16.03
2022-10-19T10:08:00.832Z,16.06
2022-10-19T10:10:39.485Z,16.10
2022-10-19T10:13:06.421Z,16.01
2022-10-19T10:15:43.642Z,16.00
2022-10-19T10:18:15.587Z,15.97
2022-10-19T10:20:59.261Z,16.12
2022-10-19T10:23:29.297Z,16.18
2022-10-19T10:25:57.854Z,16.21
2022-10-19T10:28:27.045Z,16.13
2022-10-19T10:31:08.878Z,16.27
2022-10-19T10:33:45.161Z,16.45
2022-10-19T10:36:13.188Z,16.36
2022-10-19T10:38:45.690Z,16.17
2022-10-19T10:41:18.652Z,16.00
2022-10-19T10:43:53.824Z,16.12
2022-10-19T10:46:28.325Z,16.09
2022-10-19T10:49:15.631Z,16.02
2022-10-19T10:51:54.038Z,15.85
2022-10-19T10:54:23.760Z,15.53
2022-10-19T10:57:19.988Z,15.41
2022-10-19T11:00:15.550Z,15.35
2022-10-19T11:02:52.160Z,15.41
2022-10-19T11:05:26.588Z,15.51
2022-10-19T11:08:04.835Z,15.60
2022-10-19T11:10:31.406Z,15.66
2022-10-19T11:13:24.171Z,15.73
2022-10-19T11:15:57.485Z,15.78
2022-10-19T11:18:46.128Z,15.78
2022-10-19T11:21:15.679Z,15.93
2022-10-19T11:24:02.293Z,15.91
2022-10-19T11:26:58.180Z,15.78
2022-10-19T11:29:38.256Z,15.91
2022-10-19T11:32:14.475Z,16.01
2022-10-19T11:35:20.840Z,16.15
2022-10-19T11:38:17.988Z,16.10
2022-10-19T11:40:54.234Z,16.08
2022-10-19T11:43:38.996Z,15.93
2022-10-19T11:46:45.696Z,15.84
2022-10-19T11:52:54.744Z,15.97
2022-10-19T11:55:51.288Z,15.83
2022-10-19T11:58:57.750Z,16.04
2022-10-19T12:01:46.014Z,16.02
2022-10-19T12:04:24.759Z,15.95
2022-10-19T12:07:10.845Z,16.07
2022-10-19T12:09:55.444Z,16.01
2022-10-19T12:12:36.206Z,16.10
2022-10-19T12:15:26.238Z,16.15
2022-10-19T12:17:56.170Z,16.14
2022-10-19T12:20:42.319Z,16.23
2022-10-19T12:23:25.852Z,16.01
2022-10-19T12:25:55.670Z,16.12
2022-10-19T12:28:28.053Z,16.21
2022-10-19T12:30:55.751Z,16.22
2022-10-19T12:33:37.248Z,16.32
2022-10-19T12:36:11.600Z,16.40
2022-10-19T12:38:50.734Z,16.58
2022-10-19T12:41:33.053Z,16.58
2022-10-19T12:44:02.740Z,16.47
2022-10-19T12:46:38.116Z,16.36
2022-10-19T12:49:26.595Z,16.44
2022-10-19T12:51:54.811Z,16.38
2022-10-19T12:54:26.026Z,16.51
2022-10-19T12:56:55.978Z,16.40
2022-10-19T12:59:35.014Z,16.24
2022-10-19T13:02:04.925Z,16.07
2022-10-19T13:04:34.426Z,15.84
2022-10-19T13:07:05.129Z,15.50
2022-10-19T13:09:41.930Z,15.53
2022-10-19T13:12:33.167Z,15.54
2022-10-19T13:15:02.259Z,15.40
2022-10-19T13:17:51.004Z,15.39
2022-10-19T13:20:17.503Z,15.42
2022-10-19T13:22:50.387Z,15.52
2022-10-19T13:25:19.501Z,15.51
2022-10-19T13:27:53.881Z,15.55
2022-10-19T13:30:35.726Z,15.32
2022-10-19T13:33:31.617Z,15.19
2022-10-19T13:36:04.391Z,15.14
2022-10-19T13:38:39.000Z,15.14
2022-10-19T13:41:28.029Z,15.19
2022-10-19T13:44:18.253Z,15.03
2022-10-19T13:47:00.819Z,14.98
2022-10-19T13:49:43.378Z,14.94
2022-10-19T13:52:43.523Z,14.88
2022-10-19T13:55:16.041Z,14.98
2022-10-19T13:58:04.229Z,15.12
2022-10-19T14:00:47.779Z,15.05
2022-10-19T14:03:20.576Z,14.92
2022-10-19T14:06:27.692Z,14.81
2022-10-19T14:09:25.661Z,14.41
2022-10-19T14:11:54.540Z,14.20
2022-10-19T14:14:24.238Z,14.03
2022-10-19T14:17:01.451Z,13.83
2022-10-19T14:19:43.684Z,13.82
2022-10-19T14:22:40.693Z,13.69
2022-10-19T14:25:18.307Z,13.76
2022-10-19T14:27:54.061Z,13.72
2022-10-19T14:30:21.693Z,13.84
2022-10-19T14:32:48.419Z,13.90
2022-10-19T14:35:30.839Z,13.76
2022-10-19T14:37:58.748Z,13.82
2022-10-19T14:40:28.657Z,13.80
2022-10-19T14:42:57.248Z,13.74
2022-10-19T14:45:27.117Z,13.62
2022-10-19T14:48:17.718Z,13.67
2022-10-19T14:50:51.544Z,13.65
2022-10-19T14:53:36.218Z,13.55
2022-10-19T14:56:32.919Z,13.48
2022-10-19T14:59:03.386Z,13.41
2022-10-19T15:01:30.225Z,13.24
2022-10-19T15:03:56.941Z,13.23
2022-10-19T15:06:30.551Z,13.31
2022-10-19T15:09:04.131Z,13.42
2022-10-19T15:11:37.924Z,13.27
2022-10-19T15:14:22.166Z,13.19
2022-10-19T15:16:56.935Z,13.19
2022-10-19T15:19:26.223Z,13.17
2022-10-19T15:22:12.869Z,13.24
2022-10-19T15:24:40.493Z,13.25
2022-10-19T15:27:19.629Z,13.26
2022-10-19T15:30:00.376Z,13.16
2022-10-19T15:32:35.719Z,13.11
2022-10-19T15:35:18.515Z,12.96
2022-10-19T15:37:49.450Z,13.08
2022-10-19T15:40:29.664Z,12.93
2022-10-19T15:42:56.497Z,12.96
2022-10-19T15:45:38.676Z,12.84
2022-10-19T15:48:11.224Z,12.88
2022-10-19T15:50:42.672Z,12.99
2022-10-19T15:53:10.701Z,12.92
2022-10-19T15:55:37.718Z,12.93
2022-10-19T15:58:04.265Z,12.88
2022-10-19T16:00:31.041Z,12.74
2022-10-19T16:02:57.583Z,12.56
2022-10-19T16:05:24.489Z,12.60
2022-10-19T16:07:51.255Z,12.52
2022-10-19T16:10:21.944Z,12.47
2022-10-19T16:12:48.550Z,12.56
2022-10-19T16:15:22.495Z,12.49
2022-10-19T16:17:52.257Z,12.50
2022-10-19T16:20:19.569Z,12.56
2022-10-19T16:22:47.492Z,12.52
2022-10-19T16:25:14.587Z,12.44
2022-10-19T16:27:41.194Z,12.36
2022-10-19T16:30:08.413Z,12.23
2022-10-19T16:32:35.135Z,12.19
2022-10-19T16:35:01.710Z,12.20
2022-10-19T16:37:28.342Z,12.15
2022-10-19T16:39:54.836Z,12.11
2022-10-19T16:42:22.300Z,11.98
2022-10-19T16:44:49.535Z,11.96
2022-10-19T16:47:17.136Z,11.93
2022-10-19T16:49:43.706Z,11.90
2022-10-19T16:52:14.107Z,11.89
2022-10-19T16:54:40.851Z,11.78
2022-10-19T16:57:10.075Z,11.76
2022-10-19T16:59:36.806Z,11.63
2022-10-19T17:02:03.427Z,11.58
2022-10-19T17:04:29.945Z,11.52
2022-10-19T17:06:57.645Z,11.54
2022-10-19T17:12:12.848Z,11.49
2022-10-19T17:14:41.475Z,11.43
2022-10-19T17:17:09.699Z,11.37
2022-10-19T17:19:37.509Z,11.34
2022-10-19T17:22:05.433Z,11.30
2022-10-19T17:24:32.320Z,11.27
2022-10-19T17:27:01.462Z,11.22
2022-10-19T17:29:27.996Z,11.29
2022-10-19T17:31:54.546Z,11.34
2022-10-19T17:34:21.087Z,11.29
2022-10-19T17:36:47.969Z,11.19
2022-10-19T17:39:18.316Z,11.17
2022-10-19T17:41:46.960Z,11.09
2022-10-19T17:44:14.164Z,11.10
2022-10-19T17:46:41.110Z,11.04
2022-10-19T17:49:07.866Z,11.02
2022-10-19T17:51:36.225Z,10.99
2022-10-19T17:54:08.670Z,11.01
2022-10-19T17:56:36.250Z,11.03
2022-10-19T17:59:03.295Z,10.94
2022-10-19T18:01:30.488Z,10.98
2022-10-19T18:03:57.179Z,10.98
2022-10-19T18:06:29.618Z,10.98
2022-10-19T18:08:57.225Z,11.03
2022-10-19T18:11:32.402Z,10.98
2022-10-19T18:14:00.887Z,10.91
2022-10-19T18:16:30.654Z,10.88
2022-10-19T18:18:59.284Z,10.90
2022-10-19T18:21:35.988Z,10.85
2022-10-19T18:24:03.181Z,10.87
2022-10-19T18:26:32.288Z,10.87
2022-10-19T18:29:00.299Z,10.84
2022-10-19T18:31:31.622Z,10.86
2022-10-19T18:34:04.813Z,10.81
2022-10-19T18:36:32.586Z,10.81
2022-10-19T18:39:01.804Z,10.85
2022-10-19T18:41:29.752Z,10.80
2022-10-19T18:44:03.763Z,10.81
2022-10-19T18:46:30.801Z,10.81
2022-10-19T18:48:57.380Z,10.80
2022-10-19T18:51:24.332Z,10.80
2022-10-19T18:53:51.015Z,10.83
2022-10-19T18:56:20.128Z,10.78
2022-10-19T18:58:47.407Z,10.82
2022-10-19T19:01:15.791Z,10.80
2022-10-19T19:03:44.560Z,10.77
2022-10-19T19:06:20.170Z,10.74
2022-10-19T19:08:47.690Z,10.78
2022-10-19T19:11:17.095Z,10.71
2022-10-19T19:13:51.597Z,10.76
2022-10-19T19:16:19.200Z,10.71
2022-10-19T19:18:46.476Z,10.68
2022-10-19T19:21:19.492Z,10.71
2022-10-19T19:23:46.365Z,10.64
2022-10-19T19:26:13.565Z,10.69
2022-10-19T19:28:41.894Z,10.71
2022-10-19T19:31:10.727Z,10.67
2022-10-19T19:33:38.602Z,10.58
2022-10-19T19:36:06.888Z,10.51
2022-10-19T19:38:34.107Z,10.51
2022-10-19T19:41:04.570Z,10.44
2022-10-19T19:43:33.314Z,10.41
2022-10-19T19:46:04.628Z,10.40
2022-10-19T19:48:34.714Z,10.35
2022-10-19T19:51:01.364Z,10.32
2022-10-19T19:53:27.871Z,10.37
2022-10-19T19:55:54.421Z,10.33
2022-10-19T19:58:21.083Z,10.33
2022-10-19T20:00:47.721Z,10.27
2022-10-19T20:03:14.388Z,10.39
2022-10-19T20:05:41.112Z,10.46
2022-10-19T20:08:08.570Z,10.45
2022-10-19T20:10:39.684Z,10.49
2022-10-19T20:13:06.449Z,10.47
2022-10-19T20:15:33.588Z,10.45
2022-10-19T20:18:00.163Z,10.41
2022-10-19T20:20:26.775Z,10.38
2022-10-19T20:22:53.494Z,10.36
2022-10-19T20:25:20.044Z,10.33
2022-10-19T20:27:46.590Z,10.32
2022-10-19T20:30:13.210Z,10.27
2022-10-19T20:32:39.972Z,10.27
2022-10-19T20:35:07.621Z,10.28
2022-10-19T20:37:34.665Z,10.22
2022-10-19T20:40:08.174Z,10.21
2022-10-19T20:42:35.424Z,10.23
2022-10-19T20:45:02.202Z,10.15
2022-10-19T20:47:28.764Z,10.21
2022-10-19T20:49:55.364Z,10.19
2022-10-19T20:52:21.934Z,10.13
2022-10-19T20:54:49.341Z,10.13
2022-10-19T20:57:15.910Z,10.13
2022-10-19T20:59:44.003Z,10.06
2022-10-19T21:02:11.014Z,10.12
2022-10-19T21:04:37.622Z,10.12
2022-10-19T21:07:05.101Z,10.13
2022-10-19T21:09:32.246Z,10.10
2022-10-19T21:11:58.976Z,10.01
2022-10-19T21:14:28.881Z,10.00
2022-10-19T21:17:02.248Z,9.98
2022-10-19T21:19:30.172Z,9.89
2022-10-19T21:22:02.234Z,9.91
2022-10-19T21:24:34.122Z,9.92
2022-10-19T21:27:02.449Z,9.99
2022-10-19T21:29:29.326Z,9.96
2022-10-19T21:31:56.151Z,9.99
2022-10-19T21:34:25.918Z,9.93
2022-10-19T21:36:53.436Z,9.93
2022-10-19T21:39:20.454Z,9.92
2022-10-19T21:41:48.052Z,9.93
2022-10-19T21:44:16.221Z,9.81
2022-10-19T21:46:45.832Z,9.82
2022-10-19T21:49:12.818Z,9.77
2022-10-19T21:51:46.496Z,9.73
2022-10-19T21:54:15.840Z,9.71
2022-10-19T21:56:43.431Z,9.73
2022-10-19T21:59:10.269Z,9.71
2022-10-19T22:01:40.159Z,9.59
2022-10-19T22:04:11.983Z,9.53
2022-10-19T22:06:38.852Z,9.52
2022-10-19T22:09:07.569Z,9.57
2022-10-19T22:11:34.319Z,9.56
2022-10-19T22:14:03.017Z,9.54
2022-10-19T22:16:31.448Z,9.50
2022-10-19T22:18:58.140Z,9.44
2022-10-19T22:21:28.265Z,9.44
2022-10-19T22:24:07.146Z,9.42
2022-10-19T22:26:39.601Z,9.38
2022-10-19T22:29:07.048Z,9.40
2022-10-19T22:31:34.803Z,9.41
2022-10-19T22:34:07.684Z,9.42
2022-10-19T22:36:34.803Z,9.34
2022-10-19T22:39:01.604Z,9.40
2022-10-19T22:41:28.123Z,9.33
2022-10-19T22:43:54.594Z,9.38
2022-10-19T22:46:21.073Z,9.39
2022-10-19T22:48:47.582Z,9.39
2022-10-19T22:51:14.239Z,9.40
2022-10-19T22:53:40.831Z,9.41
2022-10-19T22:56:08.160Z,9.39
2022-10-19T22:58:34.623Z,9.34
2022-10-19T23:01:04.406Z,9.26
2022-10-19T23:03:30.976Z,9.23
2022-10-19T23:05:58.560Z,9.27
2022-10-19T23:08:25.627Z,9.27
2022-10-19T23:10:52.497Z,9.25
2022-10-19T23:13:19.054Z,9.25
2022-10-19T23:15:45.883Z,9.21
2022-10-19T23:18:13.599Z,9.15
2022-10-19T23:20:40.261Z,9.15
2022-10-19T23:23:07.710Z,9.16
2022-10-19T23:25:34.456Z,9.13
2022-10-19T23:28:01.049Z,9.09
2022-10-19T23:30:27.525Z,9.13
2022-10-19T23:32:54.067Z,9.11
2022-10-19T23:35:20.508Z,9.11
2022-10-19T23:37:47.010Z,9.08
2022-10-19T23:40:13.470Z,8.93
2022-10-19T23:42:40.008Z,8.96
2022-10-19T23:45:07.095Z,8.94
2022-10-19T23:47:33.861Z,8.91
2022-10-19T23:50:00.625Z,8.87
2022-10-19T23:52:27.142Z,8.86
2022-10-19T23:54:53.684Z,8.87
2022-10-19T23:57:20.235Z,8.90
2022-10-19T23:59:46.772Z,8.88
